createdAt,value
2019-05-25T00:02:07.267Z,14.10
2019-05-25T00:05:10.968Z,13.90
2019-05-25T00:08:14.461Z,13.80
2019-05-25T00:11:17.918Z,13.60
2019-05-25T00:14:21.477Z,13.50
2019-05-25T00:17:24.933Z,13.50
2019-05-25T00:20:28.434Z,13.40
2019-05-25T00:23:31.885Z,13.40
2019-05-25T00:26:35.378Z,13.30
2019-05-25T00:29:38.840Z,13.10
2019-05-25T00:32:42.346Z,13.00
2019-05-25T00:35:45.880Z,12.90
2019-05-25T00:38:49.380Z,12.80
2019-05-25T00:41:53.008Z,12.60
2019-05-25T00:44:56.497Z,12.60
2019-05-25T00:48:00.032Z,12.60
2019-05-25T00:51:03.540Z,12.60
2019-05-25T00:54:07.136Z,12.60
2019-05-25T00:57:10.632Z,12.60
2019-05-25T01:00:16.182Z,12.70
2019-05-25T01:03:19.741Z,12.60
2019-05-25T01:06:23.237Z,12.50
2019-05-25T01:09:26.705Z,12.30
2019-05-25T01:12:30.256Z,12.20
2019-05-25T01:15:33.788Z,12.10
2019-05-25T01:18:37.343Z,12.00
2019-05-25T01:21:40.823Z,12.00
2019-05-25T01:24:45.048Z,12.00
2019-05-25T01:27:48.702Z,12.00
2019-05-25T01:30:52.560Z,12.10
2019-05-25T01:33:56.094Z,12.10
2019-05-25T01:36:59.641Z,12.10
2019-05-25T01:40:03.392Z,12.10
2019-05-25T01:43:06.903Z,12.00
2019-05-25T01:46:10.361Z,12.00
2019-05-25T01:49:13.854Z,12.00
2019-05-25T01:52:17.404Z,11.90
2019-05-25T01:55:20.861Z,11.90
2019-05-25T01:58:24.341Z,11.90
2019-05-25T02:01:27.801Z,11.80
2019-05-25T02:04:31.289Z,11.70
2019-05-25T02:07:34.949Z,11.70
2019-05-25T02:10:38.440Z,11.60
2019-05-25T02:13:41.912Z,11.50
2019-05-25T02:16:45.398Z,11.40
2019-05-25T02:19:48.877Z,11.40
2019-05-25T02:22:52.361Z,11.30
2019-05-25T02:25:55.848Z,11.30
2019-05-25T02:28:59.298Z,11.30
2019-05-25T02:32:02.922Z,11.30
2019-05-25T02:35:07.119Z,11.30
2019-05-25T02:38:10.739Z,11.30
2019-05-25T02:41:14.260Z,11.40
2019-05-25T02:44:17.744Z,11.40
2019-05-25T02:47:21.232Z,11.30
2019-05-25T02:50:24.931Z,11.30
2019-05-25T02:53:28.412Z,11.40
2019-05-25T02:56:31.861Z,11.40
2019-05-25T02:59:35.349Z,11.40
2019-05-25T03:02:38.908Z,11.50
2019-05-25T03:05:42.689Z,11.50
2019-05-25T03:08:47.077Z,11.50
2019-05-25T03:11:50.682Z,11.40
2019-05-25T03:14:54.236Z,11.40
2019-05-25T03:17:57.721Z,11.40
2019-05-25T03:21:01.288Z,11.30
2019-05-25T03:24:04.913Z,11.30
2019-05-25T03:27:08.377Z,11.30
2019-05-25T03:30:12.131Z,11.20
2019-05-25T03:33:15.715Z,11.10
2019-05-25T03:36:19.249Z,11.10
2019-05-25T03:39:22.769Z,11.10
2019-05-25T03:42:26.248Z,11.20
2019-05-25T03:45:29.806Z,11.20
2019-05-25T03:48:33.431Z,11.10
2019-05-25T03:51:36.912Z,11.20
2019-05-25T03:54:40.368Z,11.20
2019-05-25T03:57:43.853Z,11.10
2019-05-25T04:00:47.357Z,11.10
2019-05-25T04:03:50.813Z,11.20
2019-05-25T04:06:54.295Z,11.30
2019-05-25T04:09:57.821Z,11.30
2019-05-25T04:13:01.307Z,11.40
2019-05-25T04:16:05.180Z,11.40
2019-05-25T04:19:08.697Z,11.60
2019-05-25T04:22:12.188Z,11.80
2019-05-25T04:25:15.916Z,12.00
2019-05-25T04:28:19.380Z,11.90
2019-05-25T04:31:23.025Z,11.90
2019-05-25T04:34:26.505Z,12.00
2019-05-25T04:37:29.988Z,12.10
2019-05-25T04:40:33.489Z,12.30
2019-05-25T04:43:36.948Z,12.50
2019-05-25T04:46:40.436Z,12.60
2019-05-25T04:49:43.929Z,12.50
2019-05-25T04:52:47.498Z,12.60
2019-05-25T04:55:51.058Z,12.70
2019-05-25T04:58:54.539Z,12.60
2019-05-25T05:01:58.113Z,12.60
2019-05-25T05:05:01.671Z,12.60
2019-05-25T05:08:05.224Z,12.70
2019-05-25T05:11:08.687Z,12.90
2019-05-25T05:14:12.161Z,13.10
2019-05-25T05:17:15.627Z,13.00
2019-05-25T05:20:19.349Z,12.70
2019-05-25T05:23:22.837Z,12.40
2019-05-25T05:26:26.321Z,12.10
2019-05-25T05:29:29.813Z,12.00
2019-05-25T05:32:33.305Z,12.00
2019-05-25T05:35:39.080Z,12.00
2019-05-25T05:38:42.751Z,12.00
2019-05-25T05:41:48.406Z,12.10
2019-05-25T05:44:54.124Z,12.10
2019-05-25T05:47:59.884Z,12.20
2019-05-25T05:51:05.118Z,12.30
2019-05-25T05:54:08.687Z,12.30
2019-05-25T05:57:12.965Z,12.20
2019-05-25T06:00:16.846Z,12.20
2019-05-25T06:03:20.412Z,12.20
2019-05-25T06:06:23.964Z,12.20
2019-05-25T06:09:27.457Z,12.20
2019-05-25T06:12:30.914Z,12.30
2019-05-25T06:15:34.401Z,12.30
2019-05-25T06:18:37.864Z,12.30
2019-05-25T06:21:41.359Z,12.30
2019-05-25T06:24:44.853Z,12.30
2019-05-25T06:27:48.300Z,12.40
2019-05-25T06:30:51.792Z,12.40
2019-05-25T06:33:55.253Z,12.20
2019-05-25T06:36:58.740Z,12.10
2019-05-25T06:40:02.772Z,12.20
2019-05-25T06:43:06.296Z,12.20
2019-05-25T06:46:09.784Z,12.20
2019-05-25T06:49:13.252Z,12.30
2019-05-25T06:52:16.744Z,12.30
2019-05-25T06:55:20.253Z,12.40
2019-05-25T06:58:23.776Z,12.50
2019-05-25T07:01:27.273Z,12.50
2019-05-25T07:04:30.740Z,12.50
2019-05-25T07:07:34.220Z,12.40
2019-05-25T07:10:37.716Z,12.40
2019-05-25T07:13:41.209Z,12.50
2019-05-25T07:16:44.704Z,12.60
2019-05-25T07:19:48.195Z,12.90
2019-05-25T07:22:51.690Z,13.10
2019-05-25T07:25:55.241Z,13.10
2019-05-25T07:29:00.385Z,13.10
2019-05-25T07:32:04.040Z,13.00
2019-05-25T07:35:08.059Z,13.00
2019-05-25T07:38:11.595Z,13.10
2019-05-25T07:41:15.083Z,13.30
2019-05-25T07:44:18.564Z,13.50
2019-05-25T07:47:22.129Z,13.60
2019-05-25T07:50:25.658Z,13.60
2019-05-25T07:53:29.149Z,13.50
2019-05-25T07:56:32.708Z,13.50
2019-05-25T07:59:36.257Z,13.60
2019-05-25T08:02:39.740Z,13.70
2019-05-25T08:05:43.189Z,13.90
2019-05-25T08:08:46.679Z,14.50
2019-05-25T08:11:50.317Z,14.90
2019-05-25T08:14:53.770Z,15.10
2019-05-25T08:17:58.060Z,15.30
2019-05-25T08:21:01.653Z,15.70
2019-05-25T08:24:05.314Z,15.70
2019-05-25T08:27:08.765Z,15.60
2019-05-25T08:30:12.608Z,15.60
2019-05-25T08:33:16.138Z,15.50
2019-05-25T08:36:19.621Z,15.50
2019-05-25T08:39:23.139Z,15.30
2019-05-25T08:42:26.636Z,15.00
2019-05-25T08:45:30.157Z,14.90
2019-05-25T08:48:33.662Z,14.70
2019-05-25T08:51:38.638Z,14.60
2019-05-25T08:54:42.276Z,14.60
2019-05-25T08:57:45.804Z,14.50
2019-05-25T09:00:49.289Z,14.50
2019-05-25T09:03:52.744Z,14.40
2019-05-25T09:06:56.234Z,14.40
2019-05-25T09:09:59.749Z,14.60
2019-05-25T09:13:03.238Z,14.70
2019-05-25T09:16:06.865Z,14.90
2019-05-25T09:19:10.313Z,15.00
2019-05-25T09:22:13.801Z,15.10
2019-05-25T09:25:17.455Z,15.10
2019-05-25T09:28:21.052Z,15.00
2019-05-25T09:31:24.549Z,15.20
2019-05-25T09:34:28.004Z,15.10
2019-05-25T09:37:31.493Z,15.20
2019-05-25T09:40:34.977Z,15.20
2019-05-25T09:43:38.445Z,14.90
2019-05-25T09:46:41.897Z,14.80
2019-05-25T09:49:45.391Z,14.80
2019-05-25T09:52:48.874Z,15.00
2019-05-25T09:55:52.397Z,15.30
2019-05-25T09:58:55.872Z,15.40
2019-05-25T10:01:59.354Z,15.70
2019-05-25T10:05:02.884Z,15.80
2019-05-25T10:08:06.492Z,15.80
2019-05-25T10:11:10.091Z,15.80
2019-05-25T10:14:13.594Z,15.70
2019-05-25T10:17:17.217Z,15.80
2019-05-25T10:20:21.106Z,15.80
2019-05-25T10:23:24.581Z,15.60
2019-05-25T10:26:28.181Z,15.40
2019-05-25T10:29:37.330Z,15.30
2019-05-25T10:32:36.947Z,15.20
2019-05-25T10:35:40.500Z,15.00
2019-05-25T10:38:43.976Z,15.00
2019-05-25T10:41:47.425Z,15.00
2019-05-25T10:44:50.917Z,14.90
2019-05-25T10:47:54.401Z,14.80
2019-05-25T10:50:57.927Z,14.80
2019-05-25T10:54:01.416Z,14.90
2019-05-25T10:57:05.138Z,14.90
2019-05-25T11:00:10.369Z,14.90
2019-05-25T11:03:13.895Z,14.90
2019-05-25T11:06:17.456Z,14.90
2019-05-25T11:09:20.937Z,14.70
2019-05-25T11:12:26.122Z,14.90
2019-05-25T11:15:29.752Z,15.20
2019-05-25T11:18:33.251Z,15.30
2019-05-25T11:21:36.764Z,15.40
2019-05-25T11:24:40.249Z,15.30
2019-05-25T11:27:43.740Z,15.30
2019-05-25T11:30:47.254Z,15.20
2019-05-25T11:33:50.740Z,15.20
2019-05-25T11:36:54.186Z,15.30
2019-05-25T11:39:57.741Z,15.50
2019-05-25T11:43:01.212Z,15.70
2019-05-25T11:46:05.249Z,15.80
2019-05-25T11:49:21.574Z,15.80
2019-05-25T11:52:13.952Z,15.80
2019-05-25T11:55:17.747Z,15.70
2019-05-25T11:58:21.221Z,15.80
2019-05-25T12:01:24.705Z,15.90
2019-05-25T12:04:28.185Z,15.80
2019-05-25T12:07:31.652Z,15.80
2019-05-25T12:10:35.201Z,15.70
2019-05-25T12:13:38.657Z,15.60
2019-05-25T12:16:42.146Z,15.50
2019-05-25T12:19:45.632Z,15.50
2019-05-25T12:22:49.232Z,15.40
2019-05-25T12:25:52.720Z,15.50
2019-05-25T12:28:56.272Z,15.60
2019-05-25T12:32:04.147Z,15.50
2019-05-25T12:35:07.200Z,15.60
2019-05-25T12:38:10.684Z,15.80
2019-05-25T12:41:14.168Z,15.90
2019-05-25T12:44:17.652Z,16.10
2019-05-25T12:47:21.202Z,16.20
2019-05-25T12:50:24.653Z,16.30
2019-05-25T12:53:35.332Z,16.40
2019-05-25T12:56:38.821Z,16.50
2019-05-25T12:59:42.282Z,16.50
2019-05-25T13:02:45.761Z,16.60
2019-05-25T13:05:49.252Z,16.80
2019-05-25T13:08:52.736Z,17.00
2019-05-25T13:11:56.261Z,17.10
2019-05-25T13:14:59.741Z,17.10
2019-05-25T13:18:03.202Z,17.20
2019-05-25T13:21:06.757Z,17.20
2019-05-25T13:24:10.232Z,17.20
2019-05-25T13:27:13.764Z,17.20
2019-05-25T13:30:18.843Z,17.20
2019-05-25T13:33:22.328Z,17.20
2019-05-25T13:36:25.853Z,16.80
2019-05-25T13:39:29.336Z,16.70
2019-05-25T13:42:32.860Z,16.60
2019-05-25T13:45:36.336Z,16.60
2019-05-25T13:48:39.884Z,16.50
2019-05-25T13:51:43.339Z,16.50
2019-05-25T13:54:46.822Z,16.50
2019-05-25T13:57:50.267Z,16.50
2019-05-25T14:00:53.829Z,16.40
2019-05-25T14:03:57.349Z,16.50
2019-05-25T14:07:00.824Z,16.40
2019-05-25T14:10:07.112Z,16.30
2019-05-25T14:13:10.596Z,16.20
2019-05-25T14:16:14.086Z,16.40
2019-05-25T14:19:17.533Z,16.40
2019-05-25T14:22:21.019Z,16.50
2019-05-25T14:25:24.544Z,16.30
2019-05-25T14:28:28.023Z,16.30
2019-05-25T14:31:44.496Z,16.40
2019-05-25T14:34:36.736Z,16.50
2019-05-25T14:37:40.256Z,16.80
2019-05-25T14:40:43.719Z,17.00
2019-05-25T14:43:47.268Z,17.20
2019-05-25T14:46:50.723Z,17.20
2019-05-25T14:49:54.201Z,17.20
2019-05-25T14:52:57.681Z,17.20
2019-05-25T14:56:01.200Z,17.00
2019-05-25T14:59:04.772Z,17.10
2019-05-25T15:02:08.239Z,17.20
2019-05-25T15:05:11.853Z,17.00
2019-05-25T15:08:15.477Z,16.80
2019-05-25T15:11:19.016Z,16.60
2019-05-25T15:14:22.548Z,16.60
2019-05-25T15:17:26.033Z,16.60
2019-05-25T15:20:29.556Z,16.50
2019-05-25T15:23:33.040Z,16.50
2019-05-25T15:26:36.509Z,16.70
2019-05-25T15:29:39.980Z,16.70
2019-05-25T15:32:43.540Z,16.60
2019-05-25T15:35:47.129Z,16.60
2019-05-25T15:38:50.626Z,16.40
2019-05-25T15:41:54.076Z,16.20
2019-05-25T15:44:57.556Z,16.10
2019-05-25T15:48:01.012Z,16.00
2019-05-25T15:51:07.462Z,15.90
2019-05-25T15:54:11.009Z,15.80
2019-05-25T15:57:14.496Z,15.80
2019-05-25T16:00:19.493Z,16.00
2019-05-25T16:03:23.040Z,16.10
2019-05-25T16:06:26.537Z,16.10
2019-05-25T16:09:30.054Z,16.20
2019-05-25T16:12:33.522Z,16.40
2019-05-25T16:15:37.064Z,16.40
2019-05-25T16:18:40.521Z,16.30
2019-05-25T16:21:44.005Z,16.00
2019-05-25T16:24:47.485Z,15.90
2019-05-25T16:27:50.996Z,15.80
2019-05-25T16:30:54.556Z,15.70
2019-05-25T16:33:58.004Z,15.60
2019-05-25T16:37:01.572Z,15.50
2019-05-25T16:40:07.265Z,15.40
2019-05-25T16:43:10.890Z,15.50
2019-05-25T16:46:14.446Z,15.40
2019-05-25T16:49:17.973Z,15.30
2019-05-25T16:52:21.469Z,15.30
2019-05-25T16:55:25.026Z,15.20
2019-05-25T16:58:28.477Z,15.20
2019-05-25T17:01:47.043Z,15.30
2019-05-25T17:04:37.141Z,15.30
2019-05-25T17:07:40.629Z,15.40
2019-05-25T17:10:44.224Z,15.50
2019-05-25T17:13:47.708Z,15.40
2019-05-25T17:16:51.240Z,15.30
2019-05-25T17:19:54.737Z,15.10
2019-05-25T17:22:58.239Z,15.00
2019-05-25T17:26:01.843Z,15.10
2019-05-25T17:29:05.429Z,15.10
2019-05-25T17:32:08.980Z,15.00
2019-05-25T17:35:14.048Z,15.00
2019-05-25T17:38:17.660Z,15.00
2019-05-25T17:41:21.220Z,15.00
2019-05-25T17:44:24.744Z,15.00
2019-05-25T17:47:28.225Z,15.00
2019-05-25T17:50:31.819Z,15.00
2019-05-25T17:53:35.301Z,15.10
2019-05-25T17:56:38.806Z,15.10
2019-05-25T17:59:42.260Z,15.20
2019-05-25T18:02:45.744Z,15.10
2019-05-25T18:05:49.208Z,15.10
2019-05-25T18:08:52.698Z,15.10
2019-05-25T18:11:56.157Z,15.10
2019-05-25T18:14:59.716Z,15.10
2019-05-25T18:18:03.338Z,15.00
2019-05-25T18:21:06.799Z,14.90
2019-05-25T18:24:10.295Z,14.80
2019-05-25T18:27:13.826Z,14.70
2019-05-25T18:30:18.214Z,14.50
2019-05-25T18:33:21.799Z,14.40
2019-05-25T18:36:25.680Z,14.20
2019-05-25T18:39:29.170Z,14.20
2019-05-25T18:42:32.633Z,14.10
2019-05-25T18:45:36.134Z,14.00
2019-05-25T18:48:39.668Z,14.00
2019-05-25T18:51:43.157Z,14.00
2019-05-25T18:54:46.612Z,13.90
2019-05-25T18:57:50.100Z,13.90
2019-05-25T19:00:53.569Z,13.90
2019-05-25T19:03:57.139Z,13.80
2019-05-25T19:07:00.590Z,13.80
2019-05-25T19:10:07.152Z,13.80
2019-05-25T19:13:10.605Z,13.80
2019-05-25T19:16:14.088Z,13.80
2019-05-25T19:19:17.555Z,13.80
2019-05-25T19:22:21.116Z,13.70
2019-05-25T19:25:24.671Z,13.70
2019-05-25T19:28:28.205Z,13.70
2019-05-25T19:31:31.689Z,13.60
2019-05-25T19:34:35.182Z,13.50
2019-05-25T19:37:42.487Z,13.40
2019-05-25T19:40:43.932Z,13.30
2019-05-25T19:43:47.380Z,13.30
2019-05-25T19:46:50.881Z,13.30
2019-05-25T19:49:54.328Z,13.30
2019-05-25T19:52:57.815Z,13.20
2019-05-25T19:56:01.373Z,13.10
2019-05-25T19:59:04.930Z,13.10
2019-05-25T20:02:08.457Z,13.00
2019-05-25T20:05:16.977Z,12.90
2019-05-25T20:08:18.188Z,12.90
2019-05-25T20:11:21.741Z,12.80
2019-05-25T20:14:25.237Z,12.80
2019-05-25T20:17:28.692Z,12.80
2019-05-25T20:20:32.248Z,12.80
2019-05-25T20:23:35.828Z,12.80
2019-05-25T20:26:39.321Z,12.70
2019-05-25T20:29:42.872Z,12.60
2019-05-25T20:32:46.326Z,12.60
2019-05-25T20:35:49.830Z,12.60
2019-05-25T20:38:53.300Z,12.50
2019-05-25T20:41:56.796Z,12.50
2019-05-25T20:45:00.270Z,12.40
2019-05-25T20:48:03.817Z,12.30
2019-05-25T20:51:07.303Z,12.20
2019-05-25T20:54:10.801Z,12.20
2019-05-25T20:57:14.268Z,12.30
2019-05-25T21:00:18.092Z,12.30
2019-05-25T21:03:21.601Z,12.20
2019-05-25T21:06:25.060Z,12.10
2019-05-25T21:09:28.553Z,12.00
2019-05-25T21:12:32.038Z,11.90
2019-05-25T21:15:35.534Z,11.90
2019-05-25T21:18:39.056Z,11.80
2019-05-25T21:21:42.551Z,11.60
2019-05-25T21:24:46.001Z,11.30
2019-05-25T21:27:49.476Z,11.10
2019-05-25T21:30:52.942Z,11.00
2019-05-25T21:33:56.420Z,11.00
2019-05-25T21:36:59.948Z,11.00
2019-05-25T21:40:04.685Z,11.00
2019-05-25T21:43:08.124Z,11.00
2019-05-25T21:46:11.612Z,11.00
2019-05-25T21:49:15.089Z,10.90
2019-05-25T21:52:18.580Z,10.80
2019-05-25T21:55:22.265Z,10.80
2019-05-25T21:58:25.751Z,10.80
2019-05-25T22:01:29.352Z,10.80
2019-05-25T22:04:32.908Z,10.80
2019-05-25T22:07:36.354Z,10.90
2019-05-25T22:10:39.912Z,10.90
2019-05-25T22:13:43.433Z,10.90
2019-05-25T22:16:46.916Z,10.90
2019-05-25T22:19:50.369Z,10.80
2019-05-25T22:22:53.852Z,10.80
2019-05-25T22:25:57.341Z,10.70
2019-05-25T22:29:00.796Z,10.70
2019-05-25T22:32:04.289Z,10.60
2019-05-25T22:35:08.344Z,10.60
2019-05-25T22:38:11.832Z,10.60
2019-05-25T22:41:15.286Z,10.50
2019-05-25T22:44:18.769Z,10.30
2019-05-25T22:47:22.333Z,10.20
2019-05-25T22:50:25.785Z,10.10
2019-05-25T22:53:29.284Z,10.00
2019-05-25T22:56:32.743Z,10.10
2019-05-25T22:59:36.224Z,10.10
2019-05-25T23:02:39.677Z,10.10
2019-05-25T23:05:43.237Z,10.00
2019-05-25T23:08:46.689Z,10.00
2019-05-25T23:11:50.173Z,9.80
2019-05-25T23:14:53.617Z,9.80
2019-05-25T23:17:57.177Z,9.70
2019-05-25T23:21:00.656Z,9.70
2019-05-25T23:24:04.176Z,9.70
2019-05-25T23:27:07.656Z,9.80
2019-05-25T23:30:12.446Z,9.70
2019-05-25T23:33:15.921Z,9.70
2019-05-25T23:36:19.401Z,9.70
2019-05-25T23:39:22.866Z,9.70
2019-05-25T23:42:26.399Z,9.70
2019-05-25T23:45:29.844Z,9.60
2019-05-25T23:48:33.415Z,9.60
2019-05-25T23:51:36.865Z,9.60
2019-05-25T23:54:40.371Z,9.60
2019-05-25T23:57:43.856Z,9.60
